Gallatin, TN (37066)

12:09 PM CDT on September 05, 2015 (GMT -0500)
Foxfire 2 Subdivision | | Change Station
CLOSE
Current Station
Personal Weather Station
Location: Gallatin, TN
Elevation: 479 ft
Nearby Weather Stations

Elev 479 ft 36.37 °N, 86.46 °W | Updated 2 minutes ago

Clear
Clear
89.1 °F
Feels Like 98 °F
N
2.9
Wind Variable Wind from ENE
Gusts 4.0 mph

Today
High -- | Low -- °F
--% Chance of Precip.
Yesterday
High -- | Low -- °F
Precip. -- in
6:20 AM 7:08 PM
Waning Gibbous, 47% visible
Pressure 30.09 in
Visibility 10.0 miles
Clouds Few 5000 ft
Scattered Clouds 25000 ft
Heat Index 98 °F
Dew Point 74 °F
Humidity 60%
Rainfall 0.00 in
Snow Depth Not available.
UV 5.0 out of 12
Pollen 10.80 out of 12
Air Quality Not available.
Flu Activity Not available.
METAR KBNA 051653Z 00000KT 10SM FEW050 SCT250 33/18 A3011 RMK AO2 SLP189 T03280183
Pressure 30.09 in
Visibility 10.0 miles
Clouds Few 5000 ft
Scattered Clouds 25000 ft
Heat Index 98 °F
Dew Point 74 °F
Humidity 60%
Rainfall 0.00 in
Snow Depth Not available.
UV 5.0 out of 12
Pollen 10.80 out of 12
Air Quality Not available.
Flu Activity Not available.
METAR KBNA 051653Z 00000KT 10SM FEW050 SCT250 33/18 A3011 RMK AO2 SLP189 T03280183

10-Day Weather Forecast

×

Almanac

Astronomy

Sep. 05, 2015 Rise Set
Actual Time
Civil Twilight
Nautical Twilight
Astronomical Twilight
Moon
Length of Visible Light
Length of Day
Tomorrow will be .
, % of the Moon is Illuminated

Today's Extremes

State Highs State Lows

Community

WunderPhotos

Upload Photos

1,852,503 photos uploaded!

WunderBlogs® & News

Nearby

Air Quality

  Air Quality AQ Index Pollutant
Not available.

Snow Depth

Station Depth Elevation

Earthquake Activity

City Distance Mag. Time & Date
Minimum magnitude displayed is 2.5.

Coastal Water Temperatures

Place Temperature

Stations

Nearby Weather Stations

Station Location Temp. Windchill Dew Point Humidity Wind Precip. Elev Updated Type